Time;durP1;ratioP1;P1;durP2;ratioP2;P2;SDS_P1;SDS_P2;PMS_P1;PMS_P2;Temp;Humidity;BMP_temperature;BMP_pressure;BME280_temperature;BME280_humidity;BME280_pressure;Samples;Min_cycle;Max_cycle;Signal;HPM_P1;HPM_P2
2023/05/07 00:00:19;;;;;;;;;;;;;;;-142.75;100.00;76672.66;4987135;28;20012;-73
2023/05/07 00:02:47;;;;;;;;;;;;;;;-142.75;100.00;76668.72;4987245;28;20645;-70
2023/05/07 00:05:12;;;;;;;;;;;;;;;-142.75;100.00;76662.81;4989433;28;20013;-71
2023/05/07 00:07:37;;;;;;;;;;;;;;;-142.75;100.00;76658.88;4986071;28;20406;-70
2023/05/07 00:10:03;;;;;;;;;;;;;;;-142.75;100.00;76652.97;4975315;28;19914;-69
2023/05/07 00:12:31;;;;;;;;;;;;;;;-142.75;100.00;76652.97;4986920;28;20383;-71
2023/05/07 00:14:56;;;;;;;;;;;;;;;-142.75;100.00;76662.81;4985967;28;19953;-69
2023/05/07 00:17:21;;;;;;;;;;;;;;;-142.75;100.00;76668.72;4987539;28;19960;-70
2023/05/07 00:19:47;;;;;;;;;;;;;;;-142.75;100.00;76662.81;4987298;28;19991;-69
2023/05/07 00:22:12;;;;;;;;;;;;;;;-142.75;100.00;76654.94;4977948;28;20584;-71
2023/05/07 00:24:38;;;;;;;;;;;;;;;-142.75;100.00;76625.41;4987165;28;19914;-69
2023/05/07 00:27:03;;;;;;;;;;;;;;;-142.75;100.00;76621.47;4987515;28;20059;-69
2023/05/07 00:29:28;;;;;;;;;;;;;;;-142.75;100.00;76627.38;4988364;28;19952;-69
2023/05/07 00:31:54;;;;;;;;;;;;;;;-142.75;100.00;76627.38;4990912;28;19914;-70
2023/05/07 00:34:20;;;;;;;;;;;;;;;-142.75;100.00;76625.41;4991083;28;19914;-69
2023/05/07 00:36:45;;;;;;;;;;;;;;;-142.75;100.00;76617.53;4991466;28;19972;-70
2023/05/07 00:39:11;;;;;;;;;;;;;;;-142.75;100.00;76625.41;4990568;28;19913;-69
2023/05/07 00:41:36;;;;;;;;;;;;;;;-142.75;100.00;76639.19;4989375;28;19913;-69
2023/05/07 00:44:02;;;;;;;;;;;;;;;-142.75;100.00;76635.25;4990445;28;19913;-68
2023/05/07 00:46:28;;;;;;;;;;;;;;;-142.75;100.00;76621.47;4989273;28;19913;-70
2023/05/07 00:48:54;;;;;;;;;;;;;;;-142.75;100.00;76633.28;4990261;28;19918;-71
2023/05/07 00:51:19;;;;;;;;;;;;;;;-142.75;100.00;76625.41;4990533;28;19913;-69
2023/05/07 00:53:45;;;;;;;;;;;;;;;-142.75;100.00;76637.22;4990326;28;19960;-69
2023/05/07 00:56:11;;;;;;;;;;;;;;;-142.75;100.00;76633.28;4990286;28;19920;-70
2023/05/07 00:58:36;;;;;;;;;;;;;;;-142.75;100.00;76635.25;4990387;28;19953;-69
2023/05/07 01:01:01;;;;;;;;;;;;;;;-142.75;100.00;76625.41;4988908;28;19969;-69
2023/05/07 01:03:26;;;;;;;;;;;;;;;-142.75;100.00;76617.53;4990064;28;19913;-69
2023/05/07 01:05:52;;;;;;;;;;;;;;;-142.75;100.00;76615.56;4988717;28;20489;-70
2023/05/07 01:08:18;;;;;;;;;;;;;;;-142.75;100.00;76617.53;4988910;28;20597;-69
2023/05/07 01:10:43;;;;;;;;;;;;;;;-142.75;100.00;76611.63;4990304;28;19914;-70
2023/05/07 01:13:10;;;;;;;;;;;;;;;-142.75;100.00;76613.59;4989891;28;19949;-70
2023/05/07 01:15:35;;;;;;;;;;;;;;;-142.75;100.00;76617.53;4989855;28;20434;-69
2023/05/07 01:18:01;;;;;;;;;;;;;;;-142.75;100.00;76621.47;4989819;28;19914;-70
2023/05/07 01:20:27;;;;;;;;;;;;;;;-142.75;100.00;76637.22;4989914;28;20379;-68
2023/05/07 01:22:53;;;;;;;;;;;;;;;-142.75;100.00;76651.00;4990008;28;19993;-70
2023/05/07 01:25:18;;;;;;;;;;;;;;;-142.75;100.00;76652.97;4972191;28;19953;-69
2023/05/07 01:27:43;;;;;;;;;;;;;;;-142.75;100.00;76652.97;4989824;28;20072;-70
2023/05/07 01:30:08;;;;;;;;;;;;;;;-142.75;100.00;76652.97;4989552;28;19921;-70
2023/05/07 01:32:34;;;;;;;;;;;;;;;-142.75;100.00;76664.78;4989683;28;20382;-70
2023/05/07 01:35:00;;;;;;;;;;;;;;;-142.75;100.00;76660.84;4989391;28;20594;-69
2023/05/07 01:37:25;;;;;;;;;;;;;;;-142.75;100.00;76651.00;5002179;28;19922;-70
2023/05/07 01:39:52;;;;;;;;;;;;;;;-142.75;100.00;76641.16;4988145;28;19963;-69
2023/05/07 01:42:18;;;;;;;;;;;;;;;-142.75;100.00;76621.47;4988618;28;19968;-70
2023/05/07 01:44:43;;;;;;;;;;;;;;;-142.75;100.00;76609.66;4989257;28;19917;-70
2023/05/07 01:47:09;;;;;;;;;;;;;;;-142.75;100.00;76601.78;4989515;28;19921;-71
2023/05/07 01:49:35;;;;;;;;;;;;;;;-142.75;100.00;76597.84;5003240;28;19918;-69
2023/05/07 01:52:00;;;;;;;;;;;;;;;-142.75;100.00;76588.00;4989275;28;19917;-70
2023/05/07 01:54:27;;;;;;;;;;;;;;;-142.75;100.00;76595.88;4988932;28;19925;-69
2023/05/07 01:56:52;;;;;;;;;;;;;;;-142.75;100.00;76601.78;4989553;28;20401;-69
2023/05/07 01:59:17;;;;;;;;;;;;;;;-142.75;100.00;76593.91;4988881;28;19957;-69
2023/05/07 02:01:43;;;;;;;;;;;;;;;-142.75;100.00;76591.94;4989150;28;20004;-69
2023/05/07 02:04:08;;;;;;;;;;;;;;;-142.75;100.00;76591.94;4988521;28;19920;-70
2023/05/07 02:06:33;;;;;;;;;;;;;;;-142.75;100.00;76584.06;4995985;28;19914;-69
2023/05/07 02:08:58;;;;;;;;;;;;;;;-142.75;100.00;76601.78;4989002;28;20303;-70
2023/05/07 02:11:25;;;;;;;;;;;;;;;-142.75;100.00;76589.97;4989108;28;20386;-69
2023/05/07 02:13:50;;;;;;;;;;;;;;;-142.75;100.00;76574.22;4988958;28;19920;-70
2023/05/07 02:16:15;;;;;;;;;;;;;;;-142.75;100.00;76582.09;4989079;28;19917;-69
2023/05/07 02:18:40;;;;;;;;;;;;;;;-142.75;100.00;76576.19;4990553;28;19917;-70
2023/05/07 02:21:06;;;;;;;;;;;;;;;-142.75;100.00;76582.09;4987607;28;19921;-69
2023/05/07 02:23:31;;;;;;;;;;;;;;;-142.75;100.00;76603.75;4988508;28;19920;-69
2023/05/07 02:25:56;;;;;;;;;;;;;;;-142.75;100.00;76607.69;4988614;28;20298;-71
2023/05/07 02:28:21;;;;;;;;;;;;;;;-142.75;100.00;76605.72;4987166;28;19918;-69
2023/05/07 02:30:46;;;;;;;;;;;;;;;-142.75;100.00;76611.63;4971028;28;19913;-69
2023/05/07 02:33:13;;;;;;;;;;;;;;;-142.75;100.00;76603.75;4970756;28;20450;-70
2023/05/07 02:35:38;;;;;;;;;;;;;;;-142.75;100.00;76603.75;4988351;28;19949;-69
2023/05/07 02:38:04;;;;;;;;;;;;;;;-142.75;100.00;76591.94;4982445;28;19945;-70
2023/05/07 02:40:29;;;;;;;;;;;;;;;-142.75;100.00;76582.09;4987208;28;20436;-71
2023/05/07 02:42:54;;;;;;;;;;;;;;;-142.75;100.00;76572.25;4982845;28;19913;-68
2023/05/07 02:45:20;;;;;;;;;;;;;;;-142.75;100.00;76582.09;4988219;28;20025;-69
2023/05/07 02:47:46;;;;;;;;;;;;;;;-142.75;100.00;76572.25;4988348;28;20187;-69
2023/05/07 02:50:11;;;;;;;;;;;;;;;-142.75;100.00;76578.16;4988294;28;19920;-69
2023/05/07 02:52:36;;;;;;;;;;;;;;;-142.75;100.00;76566.34;4987792;28;19920;-70
2023/05/07 02:55:02;;;;;;;;;;;;;;;-142.75;100.00;76566.34;4987932;28;19914;-71
2023/05/07 02:57:27;;;;;;;;;;;;;;;-142.75;100.00;76574.22;4987742;28;19914;-69
2023/05/07 02:59:52;;;;;;;;;;;;;;;-142.75;100.00;76586.03;4970860;28;19943;-71
2023/05/07 03:02:18;;;;;;;;;;;;;;;-142.75;100.00;76578.16;4987953;28;19979;-71
2023/05/07 03:04:43;;;;;;;;;;;;;;;-142.75;100.00;76574.22;4987990;28;20280;-70
2023/05/07 03:07:08;;;;;;;;;;;;;;;-142.75;100.00;76574.22;4970405;28;19968;-69
2023/05/07 03:09:33;;;;;;;;;;;;;;;-142.75;100.00;76582.09;4986667;28;19997;-70
2023/05/07 03:11:58;;;;;;;;;;;;;;;-142.75;100.00;76578.16;4988130;28;19924;-71
2023/05/07 03:14:24;;;;;;;;;;;;;;;-142.75;100.00;76595.88;4987546;28;19914;-69
2023/05/07 03:16:49;;;;;;;;;;;;;;;-142.75;100.00;76591.94;4988072;28;19913;-69
2023/05/07 03:19:15;;;;;;;;;;;;;;;-142.75;100.00;76572.25;4970240;28;19914;-70
2023/05/07 03:21:40;;;;;;;;;;;;;;;-142.75;100.00;76562.41;4987799;28;19960;-70
2023/05/07 03:24:05;;;;;;;;;;;;;;;-142.75;100.00;76564.38;4999374;28;19921;-69
2023/05/07 03:26:30;;;;;;;;;;;;;;;-142.75;100.00;76566.34;4987877;28;19918;-71
2023/05/07 03:28:56;;;;;;;;;;;;;;;-142.75;100.00;76570.28;4987649;28;19926;-67
2023/05/07 03:31:21;;;;;;;;;;;;;;;-142.75;100.00;76566.34;4986586;28;19941;-70
2023/05/07 03:33:56;;;;;;;;;;;;;;;-142.75;100.00;76572.25;4970972;28;19996;-71
2023/05/07 03:36:22;;;;;;;;;;;;;;;-142.75;100.00;76578.16;4987523;28;19921;-69
2023/05/07 03:38:48;;;;;;;;;;;;;;;-142.75;100.00;76586.03;4987751;28;19961;-70
2023/05/07 03:41:13;;;;;;;;;;;;;;;-142.75;100.00;76595.88;4969760;28;19913;-71
2023/05/07 03:43:38;;;;;;;;;;;;;;;-142.75;100.00;76584.06;4987526;28;19913;-69
2023/05/07 03:46:03;;;;;;;;;;;;;;;-142.75;100.00;76591.94;4987207;28;19914;-70
2023/05/07 03:48:29;;;;;;;;;;;;;;;-142.75;100.00;76570.28;4987590;28;19926;-69
2023/05/07 03:50:54;;;;;;;;;;;;;;;-142.75;100.00;76564.38;4987631;28;19914;-68
2023/05/07 03:53:19;;;;;;;;;;;;;;;-142.75;100.00;76580.13;4987508;28;19921;-69
2023/05/07 03:55:44;;;;;;;;;;;;;;;-142.75;100.00;76566.34;4987039;28;19924;-68
2023/05/07 03:58:10;;;;;;;;;;;;;;;-142.75;100.00;76572.25;4987294;28;19937;-68
2023/05/07 04:00:38;;;;;;;;;;;;;;;-142.75;100.00;76580.13;4986501;28;20013;-69
2023/05/07 04:03:04;;;;;;;;;;;;;;;-142.75;100.00;76582.09;4987933;28;20000;-69
2023/05/07 04:05:29;;;;;;;;;;;;;;;-142.75;100.00;76593.91;4991145;28;20391;-69
2023/05/07 04:07:54;;;;;;;;;;;;;;;-142.75;100.00;76599.81;4991241;28;20198;-69
2023/05/07 04:10:20;;;;;;;;;;;;;;;-142.75;100.00;76611.63;4989918;28;19914;-69
2023/05/07 04:12:45;;;;;;;;;;;;;;;-142.75;100.00;76607.69;4990024;28;19925;-71
2023/05/07 04:15:10;;;;;;;;;;;;;;;-142.75;100.00;76617.53;4990768;28;19914;-69
2023/05/07 04:17:35;;;;;;;;;;;;;;;-142.75;100.00;76609.66;4991108;28;19932;-70
2023/05/07 04:20:01;;;;;;;;;;;;;;;-142.75;100.00;76617.53;4991035;28;19976;-70
2023/05/07 04:22:26;;;;;;;;;;;;;;;-142.75;100.00;76615.56;4991046;28;20004;-68
2023/05/07 04:24:51;;;;;;;;;;;;;;;-142.75;100.00;76617.53;4973431;28;19913;-70
2023/05/07 04:27:17;;;;;;;;;;;;;;;-142.75;100.00;76621.47;4989486;28;19917;-69
2023/05/07 04:29:42;;;;;;;;;;;;;;;-142.75;100.00;76621.47;4973282;28;20449;-70
2023/05/07 04:32:09;;;;;;;;;;;;;;;-142.75;100.00;76617.53;4990966;28;20394;-69
2023/05/07 04:34:34;;;;;;;;;;;;;;;-142.75;100.00;76615.56;4983190;28;19914;-68
2023/05/07 04:36:59;;;;;;;;;;;;;;;-142.75;100.00;76623.44;4990844;28;19924;-70
2023/05/07 04:39:24;;;;;;;;;;;;;;;-142.75;100.00;76623.44;4989387;28;19996;-69
2023/05/07 04:41:50;;;;;;;;;;;;;;;-142.75;100.00;76619.50;4990885;28;19924;-69
2023/05/07 04:44:15;;;;;;;;;;;;;;;-142.75;100.00;76623.44;4990234;28;19945;-70
2023/05/07 04:46:40;;;;;;;;;;;;;;;-142.75;100.00;76617.53;4990754;28;19920;-69
2023/05/07 04:49:05;;;;;;;;;;;;;;;-142.75;100.00;76621.47;4976760;28;20350;-69
2023/05/07 04:51:32;;;;;;;;;;;;;;;-142.75;100.00;76613.59;4990192;28;20345;-69
2023/05/07 04:53:57;;;;;;;;;;;;;;;-142.75;100.00;76605.72;4991122;28;19936;-71
2023/05/07 04:56:22;;;;;;;;;;;;;;;-142.75;100.00;76601.78;4987964;28;20544;-69
2023/05/07 04:58:48;;;;;;;;;;;;;;;-142.75;100.00;76593.91;4990399;28;19935;-70
2023/05/07 05:01:13;;;;;;;;;;;;;;;-142.75;100.00;76605.72;5004371;28;19967;-69
2023/05/07 05:03:39;;;;;;;;;;;;;;;-142.75;100.00;76609.66;4989475;28;19920;-70
2023/05/07 05:06:04;;;;;;;;;;;;;;;-142.75;100.00;76605.72;4989256;28;19921;-69
2023/05/07 05:08:29;;;;;;;;;;;;;;;-142.75;100.00;76599.81;4990182;28;19918;-68
2023/05/07 05:10:55;;;;;;;;;;;;;;;-142.75;100.00;76597.84;4990163;28;19922;-68
2023/05/07 05:13:21;;;;;;;;;;;;;;;-142.75;100.00;76584.06;4989924;28;19995;-70
2023/05/07 05:15:46;;;;;;;;;;;;;;;-142.75;100.00;76597.84;4987616;28;19925;-69
2023/05/07 05:18:11;;;;;;;;;;;;;;;-142.75;100.00;76599.81;4989846;28;19968;-70
2023/05/07 05:20:36;;;;;;;;;;;;;;;-142.75;100.00;76601.78;4989682;28;19917;-70
2023/05/07 05:23:01;;;;;;;;;;;;;;;-142.75;100.00;76611.63;4989555;28;19914;-68
2023/05/07 05:25:28;;;;;;;;;;;;;;;-142.75;100.00;76629.34;4989063;28;19914;-69
2023/05/07 05:27:56;;;;;;;;;;;;;;;-142.75;100.00;76623.44;4988394;28;20409;-70
2023/05/07 05:30:21;;;;;;;;;;;;;;;-142.75;100.00;76617.53;4990042;28;19913;-69
2023/05/07 05:32:47;;;;;;;;;;;;;;;-142.75;100.00;76613.59;4989703;28;19920;-70
2023/05/07 05:35:12;;;;;;;;;;;;;;;-142.75;100.00;76609.66;4989178;28;20382;-70
2023/05/07 05:37:37;;;;;;;;;;;;;;;-142.75;100.00;76613.59;4989573;28;19913;-70
2023/05/07 05:40:03;;;;;;;;;;;;;;;-142.75;100.00;76619.50;4988070;28;19921;-69
2023/05/07 05:42:28;;;;;;;;;;;;;;;-142.75;100.00;76619.50;4989442;28;19914;-71
2023/05/07 05:44:53;;;;;;;;;;;;;;;-142.75;100.00;76621.47;4989494;28;19914;-69
2023/05/07 05:47:18;;;;;;;;;;;;;;;-142.75;100.00;76625.41;4988352;28;19913;-70
2023/05/07 05:49:44;;;;;;;;;;;;;;;-142.75;100.00;76607.69;4989422;28;19918;-70
2023/05/07 05:52:11;;;;;;;;;;;;;;;-142.75;100.00;76629.34;4989589;28;20299;-69
2023/05/07 05:54:36;;;;;;;;;;;;;;;-142.75;100.00;76629.34;4988990;28;19914;-69
2023/05/07 05:57:03;;;;;;;;;;;;;;;-142.75;100.00;76629.34;4989197;28;19913;-70
2023/05/07 05:59:29;;;;;;;;;;;;;;;-142.75;100.00;76643.13;4989262;28;19988;-70
2023/05/07 06:01:54;;;;;;;;;;;;;;;-142.75;100.00;76645.09;4989055;28;20009;-67
2023/05/07 06:04:19;;;;;;;;;;;;;;;-142.75;100.00;76651.00;4987601;28;19913;-70
2023/05/07 06:06:44;;;;;;;;;;;;;;;-142.75;100.00;76647.06;4989126;28;19960;-69
2023/05/07 06:09:09;;;;;;;;;;;;;;;-142.75;100.00;76633.28;4988841;28;19918;-70
2023/05/07 06:11:35;;;;;;;;;;;;;;;-142.75;100.00;76643.13;4989139;28;20520;-70
2023/05/07 06:14:00;;;;;;;;;;;;;;;-142.75;100.00;76631.31;4988549;28;20371;-71
2023/05/07 06:16:25;;;;;;;;;;;;;;;-142.75;100.00;76619.50;4988186;28;19925;-68
2023/05/07 06:18:50;;;;;;;;;;;;;;;-142.75;100.00;76617.53;4989227;28;19930;-69
2023/05/07 06:21:16;;;;;;;;;;;;;;;-142.75;100.00;76621.47;4975287;28;20025;-70
2023/05/07 06:23:41;;;;;;;;;;;;;;;-142.75;100.00;76623.44;4988634;28;20001;-70
2023/05/07 06:26:06;;;;;;;;;;;;;;;-142.75;100.00;76609.66;4987686;28;19929;-69
2023/05/07 06:28:35;;;;;;;;;;;;;;;-142.75;100.00;76609.66;4987952;28;19924;-69
2023/05/07 06:31:13;;;;;;;;;;;;;;;-142.75;100.00;76621.47;4988686;28;19956;-69
2023/05/07 06:33:38;;;;;;;;;;;;;;;-142.75;100.00;76605.72;4988737;28;19991;-69
2023/05/07 06:36:04;;;;;;;;;;;;;;;-142.75;100.00;76613.59;4988585;28;20583;-68
2023/05/07 06:38:29;;;;;;;;;;;;;;;-142.75;100.00;76609.66;4988953;28;19933;-69
2023/05/07 06:40:55;;;;;;;;;;;;;;;-142.75;100.00;76617.53;4997898;28;19913;-69
2023/05/07 06:43:20;;;;;;;;;;;;;;;-142.75;100.00;76621.47;4988430;28;20383;-69
2023/05/07 06:45:46;;;;;;;;;;;;;;;-142.75;100.00;76629.34;4988306;28;19914;-71
2023/05/07 06:48:11;;;;;;;;;;;;;;;-142.75;100.00;76611.63;4988362;28;19925;-70
2023/05/07 06:50:36;;;;;;;;;;;;;;;-142.75;100.00;76613.59;4988007;28;19914;-70
2023/05/07 06:53:01;;;;;;;;;;;;;;;-142.75;100.00;76593.91;4988208;28;20453;-69
2023/05/07 06:55:27;;;;;;;;;;;;;;;-142.75;100.00;76578.16;4988105;28;20471;-69
2023/05/07 06:57:52;;;;;;;;;;;;;;;-142.75;100.00;76570.28;4988630;28;19914;-69
2023/05/07 07:00:17;;;;;;;;;;;;;;;-142.75;100.00;76552.56;4988041;28;19921;-68
2023/05/07 07:02:43;;;;;;;;;;;;;;;-142.75;100.00;76532.88;4986344;28;20198;-69
2023/05/07 07:05:08;;;;;;;;;;;;;;;-142.75;100.00;76530.91;4987960;28;19920;-70
2023/05/07 07:07:33;;;;;;;;;;;;;;;-142.75;100.00;76521.09;4987911;28;19913;-69
2023/05/07 07:09:59;;;;;;;;;;;;;;;-142.75;100.00;76511.25;4988073;28;19922;-69
2023/05/07 07:12:25;;;;;;;;;;;;;;;-142.75;100.00;76519.13;4986273;28;19913;-70
2023/05/07 07:14:51;;;;;;;;;;;;;;;-142.75;100.00;76534.84;4986584;28;19913;-70
2023/05/07 07:17:16;;;;;;;;;;;;;;;-142.75;100.00;76523.06;4987742;28;19936;-70
2023/05/07 07:19:41;;;;;;;;;;;;;;;-142.75;100.00;76523.06;4986597;28;20339;-70
2023/05/07 07:22:06;;;;;;;;;;;;;;;-142.75;100.00;76515.19;4987637;28;19930;-70
2023/05/07 07:24:31;;;;;;;;;;;;;;;-142.75;100.00;76499.44;4974565;28;19968;-67
2023/05/07 07:26:57;;;;;;;;;;;;;;;-142.75;100.00;76507.31;4987786;28;19921;-68
2023/05/07 07:29:23;;;;;;;;;;;;;;;-142.75;100.00;76527.00;4978321;28;19925;-69
2023/05/07 07:31:49;;;;;;;;;;;;;;;-142.75;100.00;76528.97;4987598;28;19960;-69
2023/05/07 07:34:14;;;;;;;;;;;;;;;-142.75;100.00;76503.38;4987035;28;20152;-69
2023/05/07 07:36:39;;;;;;;;;;;;;;;-142.75;100.00;76464.00;4986292;28;19913;-69
2023/05/07 07:39:05;;;;;;;;;;;;;;;-142.75;100.00;76442.34;4986880;28;19950;-69
2023/05/07 07:41:30;;;;;;;;;;;;;;;-142.75;100.00;76385.25;4995397;28;20563;-68
2023/05/07 07:43:55;;;;;;;;;;;;;;;-142.75;100.00;76361.63;4986463;28;20043;-68
2023/05/07 07:46:20;;;;;;;;;;;;;;;-142.75;100.00;76353.78;4985497;28;19913;-70
2023/05/07 07:48:45;;;;;;;;;;;;;;;-142.75;100.00;76377.38;4986726;28;19964;-69
2023/05/07 07:51:11;;;;;;;;;;;;;;;-142.75;100.00;76412.81;4986603;28;20004;-70
2023/05/07 07:53:36;;;;;;;;;;;;;;;-142.75;100.00;76428.56;4986868;28;19920;-72
2023/05/07 07:56:01;;;;;;;;;;;;;;;-142.75;100.00;76456.13;4987066;28;19924;-72
2023/05/07 07:58:26;;;;;;;;;;;;;;;-142.75;100.00;76464.00;4986879;28;20387;-71
2023/05/07 08:00:52;;;;;;;;;;;;;;;-142.75;100.00;76456.13;4987160;28;20295;-73
2023/05/07 08:03:17;;;;;;;;;;;;;;;-142.75;100.00;76471.88;4986813;28;19920;-72
2023/05/07 08:05:43;;;;;;;;;;;;;;;-142.75;100.00;76464.00;4982466;28;20368;-70
2023/05/07 08:08:08;;;;;;;;;;;;;;;-142.75;100.00;76467.94;4986694;28;19921;-69
2023/05/07 08:10:34;;;;;;;;;;;;;;;-142.75;100.00;76460.06;4986991;28;20453;-70
2023/05/07 08:12:59;;;;;;;;;;;;;;;-142.75;100.00;76460.06;4987071;28;19987;-69
2023/05/07 08:15:25;;;;;;;;;;;;;;;-142.75;100.00;76456.13;4985410;28;19924;-70
2023/05/07 08:17:50;;;;;;;;;;;;;;;-142.75;100.00;76456.13;4985951;28;20016;-70
2023/05/07 08:20:15;;;;;;;;;;;;;;;-142.75;100.00;76446.28;4975006;28;20016;-70
2023/05/07 08:22:40;;;;;;;;;;;;;;;-142.75;100.00;76424.63;4987045;28;19940;-69
2023/05/07 08:25:06;;;;;;;;;;;;;;;-142.75;100.00;76430.53;4986898;28;19918;-69
2023/05/07 08:27:31;;;;;;;;;;;;;;;-142.75;100.00;76395.09;4987324;28;19920;-69
2023/05/07 08:29:56;;;;;;;;;;;;;;;-142.75;100.00;76357.69;4981542;28;19922;-70
2023/05/07 08:32:21;;;;;;;;;;;;;;;-142.75;100.00;76322.28;4986556;28;19913;-70
2023/05/07 08:34:47;;;;;;;;;;;;;;;-142.75;100.00;76314.41;4986865;28;19955;-70
2023/05/07 08:37:12;;;;;;;;;;;;;;;-142.75;100.00;76296.69;4987428;28;20004;-71
2023/05/07 08:39:38;;;;;;;;;;;;;;;-142.75;100.00;76284.88;4986015;28;19909;-71
2023/05/07 08:42:04;;;;;;;;;;;;;;;-142.75;100.00;76273.06;4987050;28;20278;-69
2023/05/07 08:44:32;;;;;;;;;;;;;;;-142.75;100.00;76251.41;4986768;28;19916;-69
2023/05/07 08:46:58;;;;;;;;;;;;;;;-142.75;100.00;76217.94;4986938;28;19916;-71
2023/05/07 08:49:23;;;;;;;;;;;;;;;-142.75;100.00;76182.53;4986543;28;19913;-71
2023/05/07 08:51:48;;;;;;;;;;;;;;;-142.75;100.00;76149.06;4990156;28;19915;-70
2023/05/07 08:54:16;;;;;;;;;;;;;;;-142.75;100.00;76174.66;4990278;28;19909;-70
2023/05/07 08:56:41;;;;;;;;;;;;;;;-142.75;100.00;76160.88;4984079;28;20008;-70
2023/05/07 08:59:06;;;;;;;;;;;;;;;-142.75;100.00;76166.78;4988240;28;20670;-67
2023/05/07 09:01:31;;;;;;;;;;;;;;;-142.75;100.00;76182.53;4988881;28;19910;-71
2023/05/07 09:03:57;;;;;;;;;;;;;;;-142.75;100.00;76164.81;4983888;28;20280;-70
2023/05/07 09:06:22;;;;;;;;;;;;;;;-142.75;100.00;76172.69;4982409;28;20318;-71
2023/05/07 09:08:51;;;;;;;;;;;;;;;-142.75;100.00;76188.44;4990202;28;19921;-70
2023/05/07 09:11:19;;;;;;;;;;;;;;;-142.75;100.00;76217.94;5003608;28;20282;-70
2023/05/07 09:13:44;;;;;;;;;;;;;;;-142.75;100.00;76200.25;4990420;28;19929;-70
2023/05/07 09:16:11;;;;;;;;;;;;;;;-142.75;100.00;76229.75;4989308;28;19917;-71
2023/05/07 09:18:40;;;;;;;;;;;;;;;-142.75;100.00;76223.84;4989711;28;20282;-71
2023/05/07 09:21:09;;;;;;;;;;;;;;;-142.75;100.00;76217.94;4989497;28;20029;-70
2023/05/07 09:23:34;;;;;;;;;;;;;;;-142.75;100.00;76233.69;4988810;28;20008;-71
2023/05/07 09:26:00;;;;;;;;;;;;;;;-142.75;100.00;76182.53;4989207;28;20048;-71
2023/05/07 09:28:25;;;;;;;;;;;;;;;-142.75;100.00;76190.41;4989132;28;21507;-71
2023/05/07 09:30:51;;;;;;;;;;;;;;;-142.75;100.00;76190.41;4989721;28;20680;-70
2023/05/07 09:33:16;;;;;;;;;;;;;;;-142.75;100.00;76196.31;4988706;28;19956;-71
2023/05/07 09:35:42;;;;;;;;;;;;;;;-142.75;100.00;76192.38;4988748;28;19922;-70
2023/05/07 09:38:07;;;;;;;;;;;;;;;-142.75;100.00;76184.50;4988584;28;20601;-71
2023/05/07 09:40:32;;;;;;;;;;;;;;;-142.75;100.00;76168.75;4995853;28;19914;-71
2023/05/07 09:43:08;;;;;;;;;;;;;;;-142.75;100.00;76162.84;4988925;28;20294;-72
2023/05/07 09:45:34;;;;;;;;;;;;;;;-142.75;100.00;76160.88;4988891;28;19914;-71
2023/05/07 09:48:00;;;;;;;;;;;;;;;-142.75;100.00;76111.66;4988579;28;19975;-70
2023/05/07 09:50:26;;;;;;;;;;;;;;;-142.75;100.00;76050.66;4987489;28;19910;-72
2023/05/07 09:52:52;;;;;;;;;;;;;;;-142.75;100.00;76036.88;4988387;28;19909;-71
2023/05/07 09:55:18;;;;;;;;;;;;;;;-142.75;100.00;76003.41;4988075;28;19914;-71
2023/05/07 09:57:44;;;;;;;;;;;;;;;-142.75;100.00;75985.69;4987991;28;19913;-70
2023/05/07 10:00:10;;;;;;;;;;;;;;;-142.75;100.00;76025.06;4988561;28;19921;-70
2023/05/07 10:02:36;;;;;;;;;;;;;;;-142.75;100.00;76066.41;4988557;28;19925;-71
2023/05/07 10:05:02;;;;;;;;;;;;;;;-142.75;100.00;76044.75;5002019;28;20436;-71
2023/05/07 10:07:28;;;;;;;;;;;;;;;-142.75;100.00;76019.16;4986851;28;19995;-71
2023/05/07 10:09:53;;;;;;;;;;;;;;;-142.75;100.00;76011.28;4988470;28;20062;-72
2023/05/07 10:12:19;;;;;;;;;;;;;;;-142.75;100.00;75991.59;4988800;28;20839;-70
2023/05/07 10:14:45;;;;;;;;;;;;;;;-142.75;100.00;76005.38;4988330;28;19964;-71
2023/05/07 10:17:11;;;;;;;;;;;;;;;-142.75;100.00;75999.47;4988811;28;19909;-71
2023/05/07 10:19:37;;;;;;;;;;;;;;;-142.75;100.00;76019.16;4988236;28;20310;-71
2023/05/07 10:22:05;;;;;;;;;;;;;;;-142.75;100.00;75987.66;4988665;28;19924;-71
2023/05/07 10:24:32;;;;;;;;;;;;;;;-142.75;100.00;75985.69;4988059;28;19913;-70
2023/05/07 10:26:59;;;;;;;;;;;;;;;-142.75;100.00;75987.66;4994914;28;20414;-70
2023/05/07 10:29:27;;;;;;;;;;;;;;;-142.75;100.00;76003.41;4970332;28;20016;-70
2023/05/07 10:32:15;;;;;;;;;;;;;;;-142.75;100.00;76023.09;4991089;28;19929;-69
2023/05/07 10:34:43;;;;;;;;;;;;;;;-142.75;100.00;75944.38;4987035;28;20331;-70
2023/05/07 10:37:09;;;;;;;;;;;;;;;-142.75;100.00;75958.16;4973322;28;19913;-70
2023/05/07 10:39:34;;;;;;;;;;;;;;;-142.75;100.00;75934.53;4987692;28;19949;-70
2023/05/07 10:42:10;;;;;;;;;;;;;;;-142.75;100.00;75940.44;4995079;28;20583;-71
2023/05/07 10:44:37;;;;;;;;;;;;;;;-142.75;100.00;75922.72;4987943;28;19948;-70
2023/05/07 10:47:05;;;;;;;;;;;;;;;-142.75;100.00;75930.59;4988588;28;19909;-71
2023/05/07 10:49:30;;;;;;;;;;;;;;;-142.75;100.00;75944.38;4988226;28;19913;-70
2023/05/07 10:52:16;;;;;;;;;;;;;;;-142.75;100.00;75938.47;4988654;28;20371;-71
2023/05/07 10:54:46;;;;;;;;;;;;;;;-142.75;100.00;75991.59;4991823;28;19921;-70
2023/05/07 10:57:30;;;;;;;;;;;;;;;-142.75;100.00;76015.22;4984882;28;20008;-69
2023/05/07 10:59:55;;;;;;;;;;;;;;;-142.75;100.00;75979.78;4984721;28;20353;-70
2023/05/07 11:02:20;;;;;;;;;;;;;;;-142.75;100.00;75995.53;4985142;28;20025;-69
2023/05/07 11:05:05;;;;;;;;;;;;;;;-142.75;100.00;76060.50;4975227;28;20056;-69
2023/05/07 11:07:31;;;;;;;;;;;;;;;-142.75;100.00;76052.63;4986106;28;19932;-69
2023/05/07 11:09:58;;;;;;;;;;;;;;;-142.75;100.00;76058.53;4977862;28;19913;-70
2023/05/07 11:12:35;;;;;;;;;;;;;;;-142.75;100.00;76080.16;4987289;28;20351;-68
2023/05/07 11:15:01;;;;;;;;;;;;;;;-142.75;100.00;76056.56;4987421;28;20055;-69
2023/05/07 11:17:27;;;;;;;;;;;;;;;-142.75;100.00;76062.47;4987516;28;20020;-70
2023/05/07 11:19:53;;;;;;;;;;;;;;;-142.75;100.00;76023.09;4980457;28;19917;-70
2023/05/07 11:22:31;;;;;;;;;;;;;;;-142.75;100.00;76009.31;4979322;28;19921;-70
2023/05/07 11:24:56;;;;;;;;;;;;;;;-142.75;100.00;76034.91;4985922;28;19914;-70
2023/05/07 11:27:25;;;;;;;;;;;;;;;-142.75;100.00;76044.75;4987939;28;19910;-68
2023/05/07 11:29:50;;;;;;;;;;;;;;;-142.75;100.00;76050.66;4987680;28;20493;-70
2023/05/07 11:32:22;;;;;;;;;;;;;;;-142.75;100.00;76046.72;4987701;28;20016;-69
2023/05/07 11:34:47;;;;;;;;;;;;;;;-142.75;100.00;76070.34;4982328;28;19953;-70
2023/05/07 11:37:16;;;;;;;;;;;;;;;-142.75;100.00;76072.31;4987888;28;19937;-69
2023/05/07 11:39:41;;;;;;;;;;;;;;;-142.75;100.00;76056.56;4986638;28;19921;-69
2023/05/07 11:42:07;;;;;;;;;;;;;;;-142.75;100.00;76052.63;4987653;28;20020;-69
2023/05/07 11:44:45;;;;;;;;;;;;;;;-142.75;100.00;76040.81;4987268;28;19920;-68
2023/05/07 11:47:11;;;;;;;;;;;;;;;-142.75;100.00;76046.72;4970514;28;19924;-70
2023/05/07 11:49:36;;;;;;;;;;;;;;;-142.75;100.00;76027.03;4985803;28;19922;-70
2023/05/07 11:52:01;;;;;;;;;;;;;;;-142.75;100.00;75999.47;4986983;28;19918;-70
2023/05/07 11:54:34;;;;;;;;;;;;;;;-142.75;100.00;75991.59;4985598;28;19921;-69
2023/05/07 11:56:59;;;;;;;;;;;;;;;-142.75;100.00;76005.38;4983894;28;19925;-69
2023/05/07 11:59:25;;;;;;;;;;;;;;;-142.75;100.00;75985.69;4983857;28;19922;-70
2023/05/07 12:01:50;;;;;;;;;;;;;;;-142.75;100.00;75944.38;4968526;28;20012;-69
2023/05/07 12:04:18;;;;;;;;;;;;;;;-142.75;100.00;75920.75;4986373;28;20298;-69
2023/05/07 12:06:44;;;;;;;;;;;;;;;-142.75;100.00;75871.53;4987393;28;19944;-70
2023/05/07 12:09:11;;;;;;;;;;;;;;;-142.75;98.30;75830.22;4977868;28;19960;-71
2023/05/07 12:11:39;;;;;;;;;;;;;;;-142.75;98.60;75779.03;4987124;28;19980;-69